الصفحة الرئيسية
METAR-TAF:

METAR-TAF

مطار :

Wanaham

Lifou, نيو كاليدونيا

دائرة عرض: 20-46S, خط طول: 167-14E, ارتفاع: 28 متر

METAR: مفقودة

زمن: 19:37 (08:37 UTC)

توقعات

تاريخ ووقت الإصدار 15ساعات و 37 دقيقة قبل الساعة 17:00UTC
التوقعات صالحة من31 الساعة 18 UTC إلى 01 الساعة 18 UTC
ريح 8 عقدة من الشرق
الرؤية 10 كم أو أكثر
غيوم قليلة على ارتفاع 1500 قدم
غيوم متفرقة على ارتفاع 3000 قدم
غيوم مفككة على ارتفاع 5000 قدم
نظرية الاحتمالات 40% :
مؤقت
من 01 الساعة 00 UTC إلى 01 الساعة 07 UTC
غيوم مفككة على ارتفاع 1400 قدم
غيوم قليلة على ارتفاع 2000 قدم, مزن ركامية عمودية.
زخات من المطر

TAF: NWWL 311700Z 3118/0118 08008KT 9999 FEW015 SCT030 BKN050 PROB40 TEMPO 0100/0107 SHRA BKN014 FEW020TCU

أرصاد الطقس والتوقعات من أكثر من 4000 مطار (تقارير الطقس للمطار METAR والتنبؤ بالطقس بالمطارTAF).

المحطات المتاحة هي النقط الصفراء والحمراء على الخريطة.

حرك المؤشر فوق النقطة لمعرفة اسم المحطة.

ثم انقر لمعرفة أرصاد وتوقعات الطقس.

لتغيير الخارطة: اضغط على الأزرار الخضراء مع رمز الصليب الأسود للتكبير. على الزر الأخضر مع شرطة للتصغير، أو على الأسهم الخضراء للخرائط المجاورة.


METAR-TAF: